Time;durP1;ratioP1;P1;durP2;ratioP2;P2;SDS_P1;SDS_P2;PMS_P1;PMS_P2;Temp;Humidity;BMP_temperature;BMP_pressure;BME280_temperature;BME280_humidity;BME280_pressure;Samples;Min_cycle;Max_cycle;Signal;HPM_P1;HPM_P2
2021/07/15 00:00:32;;;;;;;47.45;23.75;;;;;;;;;;5068770;28;20017;-89
2021/07/15 00:02:59;;;;;;;50.33;23.20;;;;;;;;;;5065089;28;20039;-90
2021/07/15 00:05:24;;;;;;;46.70;23.45;;;;;;;;;;5066931;28;20103;-89
2021/07/15 00:07:50;;;;;;;42.58;21.83;;;;;;;;;;5073053;28;20043;-90
2021/07/15 00:10:19;;;;;;;59.55;24.95;;;;;;;;;;5073047;28;20024;-90
2021/07/15 00:12:45;;;;;;;56.05;25.63;;;;;;;;;;5054246;28;20444;-90
2021/07/15 00:15:12;;;;;;;46.00;19.02;;;;;;;;;;5053145;28;20063;-91
2021/07/15 00:17:37;;;;;;;52.05;22.77;;;;;;;;;;5069614;28;20020;-90
2021/07/15 00:20:05;;;;;;;52.17;21.45;;;;;;;;;;5064678;28;20032;-90
2021/07/15 00:22:30;;;;;;;42.58;19.88;;;;;;;;;;5067383;28;20013;-90
2021/07/15 00:24:59;;;;;;;45.28;20.17;;;;;;;;;;5066127;28;20021;-90
2021/07/15 00:27:24;;;;;;;39.70;19.25;;;;;;;;;;5052876;28;20353;-90
2021/07/15 00:29:49;;;;;;;47.45;17.90;;;;;;;;;;5066624;28;20099;-90
2021/07/15 00:32:15;;;;;;;36.15;15.57;;;;;;;;;;5052714;28;20043;-90
2021/07/15 00:34:40;;;;;;;42.42;16.50;;;;;;;;;;5055447;28;20020;-89
2021/07/15 00:37:05;;;;;;;33.47;16.35;;;;;;;;;;5063433;28;20044;-89
2021/07/15 00:39:30;;;;;;;31.23;15.40;;;;;;;;;;5052254;28;20021;-90
2021/07/15 00:41:55;;;;;;;34.13;15.98;;;;;;;;;;5050953;28;20362;-89
2021/07/15 00:44:21;;;;;;;30.45;13.63;;;;;;;;;;5050978;28;20040;-89
2021/07/15 00:46:46;;;;;;;32.53;14.88;;;;;;;;;;5052096;28;20025;-90
2021/07/15 00:49:11;;;;;;;34.67;13.60;;;;;;;;;;5052050;28;20032;-89
2021/07/15 00:51:36;;;;;;;26.98;13.80;;;;;;;;;;5052233;28;20028;-88
2021/07/15 00:54:02;;;;;;;22.92;12.93;;;;;;;;;;5051878;28;20047;-90
2021/07/15 00:56:28;;;;;;;23.58;12.93;;;;;;;;;;5052138;28;20029;-89
2021/07/15 00:58:53;;;;;;;23.83;12.70;;;;;;;;;;5051644;28;20100;-88
2021/07/15 01:01:18;;;;;;;26.30;11.90;;;;;;;;;;5051769;28;20436;-89
2021/07/15 01:03:44;;;;;;;24.15;12.73;;;;;;;;;;5052007;28;20046;-89
2021/07/15 01:06:09;;;;;;;27.85;12.18;;;;;;;;;;5051607;28;20024;-89
2021/07/15 01:08:34;;;;;;;26.42;12.77;;;;;;;;;;5051672;28;20115;-89
2021/07/15 01:10:59;;;;;;;27.35;12.50;;;;;;;;;;5051558;28;20028;-89
2021/07/15 01:13:40;;;;;;;19.75;11.90;;;;;;;;;;5085428;28;20450;-88
2021/07/15 01:16:05;;;;;;;21.02;12.07;;;;;;;;;;5085143;28;20032;-89
2021/07/15 01:18:41;;;;;;;23.20;11.90;;;;;;;;;;5051849;28;20021;-90
2021/07/15 01:21:24;;;;;;;27.15;12.35;;;;;;;;;;5051982;28;20078;-89
2021/07/15 01:24:08;;;;;;;23.60;11.85;;;;;;;;;;5051677;28;20048;-89
2021/07/15 01:26:36;;;;;;;20.30;10.85;;;;;;;;;;5051474;28;20021;-89
2021/07/15 01:29:10;;;;;;;24.90;11.55;;;;;;;;;;5051568;28;20033;-89
2021/07/15 01:31:37;;;;;;;19.35;10.68;;;;;;;;;;5051285;28;20461;-88
2021/07/15 01:34:03;;;;;;;19.77;10.98;;;;;;;;;;5051466;28;20465;-89
2021/07/15 01:36:31;;;;;;;21.65;11.70;;;;;;;;;;5051266;28;20079;-88
2021/07/15 01:38:58;;;;;;;18.98;11.85;;;;;;;;;;5051311;28;20063;-89
2021/07/15 01:41:29;;;;;;;26.35;11.63;;;;;;;;;;5051319;28;20017;-89
2021/07/15 01:43:59;;;;;;;25.35;12.25;;;;;;;;;;5051605;28;20112;-89
2021/07/15 01:46:25;;;;;;;30.10;12.57;;;;;;;;;;5052581;28;20115;-89
2021/07/15 01:48:50;;;;;;;24.27;12.93;;;;;;;;;;5051401;28;20457;-89
2021/07/15 01:51:16;;;;;;;27.35;13.07;;;;;;;;;;5040022;28;20025;-89
2021/07/15 01:53:42;;;;;;;22.35;12.20;;;;;;;;;;5048858;28;20028;-89
2021/07/15 01:56:08;;;;;;;26.15;13.48;;;;;;;;;;5053955;28;20079;-89
2021/07/15 01:58:34;;;;;;;28.02;12.10;;;;;;;;;;5055088;28;20146;-89
2021/07/15 02:01:00;;;;;;;32.13;12.50;;;;;;;;;;5055122;28;20067;-89
2021/07/15 02:03:27;;;;;;;24.08;11.90;;;;;;;;;;5055175;28;20028;-89
2021/07/15 02:05:53;;;;;;;20.73;11.63;;;;;;;;;;5055102;28;20472;-89
2021/07/15 02:08:18;;;;;;;24.05;11.18;;;;;;;;;;5055045;28;20033;-89
2021/07/15 02:10:44;;;;;;;31.58;12.25;;;;;;;;;;5055015;28;20028;-89
2021/07/15 02:13:10;;;;;;;24.33;12.65;;;;;;;;;;5055013;28;20033;-89
2021/07/15 02:15:35;;;;;;;20.27;12.32;;;;;;;;;;5054846;28;20380;-89
2021/07/15 02:18:01;;;;;;;36.38;13.73;;;;;;;;;;5054913;28;20528;-89
2021/07/15 02:20:26;;;;;;;23.65;12.68;;;;;;;;;;5054733;28;20013;-89
2021/07/15 02:22:52;;;;;;;27.92;13.23;;;;;;;;;;5054695;28;20421;-89
2021/07/15 02:25:18;;;;;;;34.72;14.63;;;;;;;;;;5054744;28;20460;-89
2021/07/15 02:27:44;;;;;;;27.55;12.52;;;;;;;;;;5054567;28;20017;-89
2021/07/15 02:30:10;;;;;;;27.88;12.80;;;;;;;;;;5054599;28;20055;-89
2021/07/15 02:32:36;;;;;;;30.73;14.23;;;;;;;;;;5054552;28;20474;-89
2021/07/15 02:35:04;;;;;;;25.75;12.35;;;;;;;;;;5054630;28;20031;-89
2021/07/15 02:37:32;;;;;;;19.13;7.88;;;;;;;;;;5055799;28;20037;-89
2021/07/15 02:39:58;;;;;;;25.52;12.30;;;;;;;;;;5054481;28;20024;-89
2021/07/15 02:42:23;;;;;;;28.40;13.35;;;;;;;;;;5054350;28;20480;-89
2021/07/15 02:44:48;;;;;;;25.50;12.00;;;;;;;;;;5055507;28;20024;-89
2021/07/15 02:47:14;;;;;;;27.90;13.52;;;;;;;;;;5054395;28;20017;-89
2021/07/15 02:49:39;;;;;;;28.73;13.75;;;;;;;;;;5054251;28;20024;-89
2021/07/15 02:52:05;;;;;;;31.90;14.00;;;;;;;;;;5054310;28;20380;-89
2021/07/15 02:54:30;;;;;;;37.35;16.83;;;;;;;;;;5054259;28;20021;-89
2021/07/15 02:57:05;;;;;;;36.85;16.85;;;;;;;;;;5053890;28;20186;-89
2021/07/15 02:59:37;;;;;;;38.38;17.38;;;;;;;;;;5054059;28;20028;-89
2021/07/15 03:02:07;;;;;;;5.53;2.50;;;;;;;;;;5054010;28;20032;-88
2021/07/15 03:04:36;;;;;;;38.83;18.90;;;;;;;;;;5054056;28;20257;-89
2021/07/15 03:07:02;;;;;;;35.90;16.67;;;;;;;;;;5052982;28;20482;-89
2021/07/15 03:09:29;;;;;;;44.28;18.10;;;;;;;;;;5053936;28;20108;-89
2021/07/15 03:12:07;;;;;;;28.75;14.88;;;;;;;;;;5087361;28;20043;-90
2021/07/15 03:14:34;;;;;;;31.15;15.95;;;;;;;;;;5054082;28;20078;-89
2021/07/15 03:17:00;;;;;;;40.45;17.58;;;;;;;;;;5053878;28;20078;-89
2021/07/15 03:19:28;;;;;;;32.75;15.30;;;;;;;;;;5053498;28;20017;-89
2021/07/15 03:21:54;;;;;;;42.13;16.83;;;;;;;;;;5053795;28;20032;-88
2021/07/15 03:24:20;;;;;;;35.83;16.58;;;;;;;;;;5053517;28;20084;-89
2021/07/15 03:26:46;;;;;;;37.60;14.70;;;;;;;;;;5053679;28;20418;-89
2021/07/15 03:29:12;;;;;;;36.95;16.80;;;;;;;;;;5054651;28;20040;-89
2021/07/15 03:31:38;;;;;;;42.45;19.25;;;;;;;;;;5053605;28;20158;-89
2021/07/15 03:34:03;;;;;;;35.55;18.25;;;;;;;;;;5053558;28;20074;-89
2021/07/15 03:36:28;;;;;;;38.67;16.95;;;;;;;;;;5053262;28;20025;-89
2021/07/15 03:38:54;;;;;;;38.45;16.73;;;;;;;;;;5054533;28;20039;-89
2021/07/15 03:41:20;;;;;;;34.28;16.33;;;;;;;;;;5053456;28;20013;-89
2021/07/15 03:43:46;;;;;;;33.03;16.45;;;;;;;;;;5053517;28;20013;-89
2021/07/15 03:46:12;;;;;;;29.67;14.52;;;;;;;;;;5053180;28;20060;-89
2021/07/15 03:48:37;;;;;;;31.10;15.85;;;;;;;;;;5053065;28;20052;-89
2021/07/15 03:51:04;;;;;;;35.22;15.88;;;;;;;;;;5054283;28;20450;-89
2021/07/15 03:53:30;;;;;;;35.70;17.02;;;;;;;;;;5053033;28;20385;-89
2021/07/15 03:55:56;;;;;;;32.42;15.07;;;;;;;;;;5053110;28;20032;-89
2021/07/15 03:58:22;;;;;;;47.70;14.93;;;;;;;;;;5053094;28;20025;-90
2021/07/15 04:00:48;;;;;;;28.95;14.10;;;;;;;;;;5052773;28;20067;-89
2021/07/15 04:03:21;;;;;;;30.50;13.95;;;;;;;;;;5053164;28;20045;-89
2021/07/15 04:05:48;;;;;;;27.95;12.80;;;;;;;;;;5052651;28;20020;-89
2021/07/15 04:08:15;;;;;;;28.15;13.32;;;;;;;;;;5052817;28;20085;-88
2021/07/15 04:10:41;;;;;;;21.77;10.57;;;;;;;;;;5052626;28;20025;-89
2021/07/15 04:13:07;;;;;;;26.85;11.68;;;;;;;;;;5052728;28;20021;-88
2021/07/15 04:15:50;;;;;;;19.05;10.80;;;;;;;;;;5053848;28;20373;-88
2021/07/15 04:18:17;;;;;;;19.10;10.35;;;;;;;;;;5052330;28;20025;-88
2021/07/15 04:20:43;;;;;;;18.58;9.82;;;;;;;;;;5052488;28;20021;-89
2021/07/15 04:23:09;;;;;;;16.15;9.27;;;;;;;;;;5052652;28;20360;-89
2021/07/15 04:25:35;;;;;;;17.60;9.60;;;;;;;;;;5052682;28;20025;-88
2021/07/15 04:28:02;;;;;;;16.20;8.73;;;;;;;;;;5052312;28;20437;-89
2021/07/15 04:30:28;;;;;;;18.98;9.32;;;;;;;;;;5052495;28;20025;-88
2021/07/15 04:32:54;;;;;;;13.52;8.48;;;;;;;;;;5052431;28;20479;-89
2021/07/15 04:35:20;;;;;;;16.00;8.23;;;;;;;;;;5052447;28;20586;-89
2021/07/15 04:37:45;;;;;;;14.30;8.23;;;;;;;;;;5052157;28;20032;-88
2021/07/15 04:40:12;;;;;;;15.60;9.00;;;;;;;;;;5052231;28;20094;-89
2021/07/15 04:42:39;;;;;;;14.23;8.20;;;;;;;;;;5052088;28;20028;-89
2021/07/15 04:45:05;;;;;;;15.50;8.88;;;;;;;;;;5052126;28;20024;-89
2021/07/15 04:47:31;;;;;;;14.57;8.40;;;;;;;;;;5052191;28;20430;-89
2021/07/15 04:49:56;;;;;;;14.57;8.52;;;;;;;;;;5051841;28;20037;-88
2021/07/15 04:52:22;;;;;;;19.33;9.15;;;;;;;;;;5052105;28;20112;-88
2021/07/15 04:54:47;;;;;;;18.02;9.38;;;;;;;;;;5052018;28;20055;-88
2021/07/15 04:57:13;;;;;;;20.65;10.38;;;;;;;;;;5053089;28;20048;-88
2021/07/15 04:59:38;;;;;;;18.65;10.30;;;;;;;;;;5051961;28;20025;-88
2021/07/15 05:02:04;;;;;;;27.58;9.98;;;;;;;;;;5051868;28;20104;-89
2021/07/15 05:04:29;;;;;;;25.70;9.27;;;;;;;;;;5052073;28;20452;-89
2021/07/15 05:06:55;;;;;;;21.00;9.73;;;;;;;;;;5051731;28;20459;-88
2021/07/15 05:09:21;;;;;;;25.20;9.48;;;;;;;;;;5052264;28;20086;-89
2021/07/15 05:11:46;;;;;;;27.50;10.13;;;;;;;;;;5051938;28;20443;-89
2021/07/15 05:14:11;;;;;;;19.25;8.75;;;;;;;;;;5051884;28;20529;-88
2021/07/15 05:16:36;;;;;;;18.35;9.98;;;;;;;;;;5051965;28;20078;-89
2021/07/15 05:19:02;;;;;;;21.83;10.60;;;;;;;;;;5051684;28;20484;-89
2021/07/15 05:21:27;;;;;;;28.33;10.38;;;;;;;;;;5051941;28;20032;-89
2021/07/15 05:23:52;;;;;;;17.25;9.65;;;;;;;;;;5051745;28;20362;-88
2021/07/15 05:26:18;;;;;;;24.00;10.90;;;;;;;;;;5051578;28;20118;-89
2021/07/15 05:28:43;;;;;;;17.80;9.93;;;;;;;;;;5052766;28;20520;-89
2021/07/15 05:31:08;;;;;;;22.65;11.20;;;;;;;;;;5054157;28;20422;-88
2021/07/15 05:33:33;;;;;;;15.85;9.88;;;;;;;;;;5055645;28;20075;-88
2021/07/15 05:35:59;;;;;;;20.50;10.10;;;;;;;;;;5055454;28;20032;-88
2021/07/15 05:38:24;;;;;;;22.75;10.02;;;;;;;;;;5055513;28;20059;-88
2021/07/15 05:40:49;;;;;;;21.10;10.70;;;;;;;;;;5055399;28;20469;-88
2021/07/15 05:43:14;;;;;;;18.23;10.20;;;;;;;;;;5055313;28;20048;-88
2021/07/15 05:45:40;;;;;;;18.70;10.18;;;;;;;;;;5055193;28;20053;-88
2021/07/15 05:48:05;;;;;;;29.38;11.20;;;;;;;;;;5055167;28;20503;-87
2021/07/15 05:50:30;;;;;;;16.73;9.23;;;;;;;;;;5065213;28;20415;-88
2021/07/15 05:52:55;;;;;;;19.60;10.65;;;;;;;;;;5064444;28;20032;-88
2021/07/15 05:55:21;;;;;;;21.70;10.02;;;;;;;;;;5057337;28;20017;-88
2021/07/15 05:57:46;;;;;;;18.40;9.82;;;;;;;;;;5055823;28;20392;-88
2021/07/15 06:00:12;;;;;;;20.70;10.95;;;;;;;;;;5054203;28;20170;-87
2021/07/15 06:02:38;;;;;;;19.30;10.00;;;;;;;;;;5054934;28;20028;-88
2021/07/15 06:05:03;;;;;;;17.73;9.73;;;;;;;;;;5055046;28;20016;-87
2021/07/15 06:07:29;;;;;;;18.88;9.27;;;;;;;;;;5056248;28;20461;-88
2021/07/15 06:09:54;;;;;;;18.30;10.60;;;;;;;;;;5054510;28;20021;-88
2021/07/15 06:12:19;;;;;;;20.00;9.52;;;;;;;;;;5056730;28;20028;-87
2021/07/15 06:14:44;;;;;;;16.92;9.93;;;;;;;;;;5056169;28;20044;-87
2021/07/15 06:17:09;;;;;;;16.20;9.05;;;;;;;;;;5053853;28;20435;-87
2021/07/15 06:19:35;;;;;;;21.80;9.77;;;;;;;;;;5054385;28;20051;-88
2021/07/15 06:22:00;;;;;;;24.40;9.15;;;;;;;;;;5054605;28;20426;-88
2021/07/15 06:24:25;;;;;;;14.85;8.00;;;;;;;;;;5053938;28;20017;-87
2021/07/15 06:26:50;;;;;;;15.40;8.57;;;;;;;;;;5054360;28;20017;-88
2021/07/15 06:29:16;;;;;;;14.10;7.68;;;;;;;;;;5055422;28;20032;-88
2021/07/15 06:31:42;;;;;;;10.98;6.32;;;;;;;;;;5054178;28;20035;-87
2021/07/15 06:34:07;;;;;;;10.82;7.05;;;;;;;;;;5055116;28;20457;-87
2021/07/15 06:36:33;;;;;;;10.88;7.05;;;;;;;;;;5055610;28;20013;-88
2021/07/15 06:38:59;;;;;;;15.68;6.90;;;;;;;;;;5054434;28;20052;-88
2021/07/15 06:41:24;;;;;;;12.02;6.72;;;;;;;;;;5054240;28;20017;-88
2021/07/15 06:43:49;;;;;;;11.13;6.50;;;;;;;;;;5054167;28;20013;-88
2021/07/15 06:46:15;;;;;;;13.98;8.23;;;;;;;;;;5054825;28;20021;-87
2021/07/15 06:48:40;;;;;;;16.10;7.22;;;;;;;;;;5054917;28;20048;-87
2021/07/15 06:51:07;;;;;;;15.13;8.00;;;;;;;;;;5054200;28;20102;-87
2021/07/15 06:53:32;;;;;;;16.60;7.95;;;;;;;;;;5053593;28;20029;-87
2021/07/15 06:55:59;;;;;;;15.15;8.40;;;;;;;;;;5055330;28;20471;-87
2021/07/15 06:58:24;;;;;;;16.92;8.27;;;;;;;;;;5053628;28;20029;-86
2021/07/15 07:03:14;;;;;;;15.45;8.32;;;;;;;;;;5086548;28;20021;-87
2021/07/15 07:05:40;;;;;;;11.95;7.90;;;;;;;;;;5051461;28;20017;-88
2021/07/15 07:08:06;;;;;;;14.13;7.90;;;;;;;;;;5053916;28;20029;-87
2021/07/15 07:10:31;;;;;;;14.50;8.25;;;;;;;;;;5053438;28;20029;-88
2021/07/15 07:12:56;;;;;;;19.20;9.80;;;;;;;;;;5054871;28;20045;-88
2021/07/15 07:15:21;;;;;;;17.83;10.85;;;;;;;;;;5054750;28;20070;-87
2021/07/15 07:17:47;;;;;;;26.05;10.18;;;;;;;;;;5053359;28;20032;-88
2021/07/15 07:20:13;;;;;;;24.48;12.65;;;;;;;;;;5053343;28;20420;-87
2021/07/15 07:22:38;;;;;;;28.42;12.95;;;;;;;;;;5054569;28;20380;-88
2021/07/15 07:25:08;;;;;;;28.77;12.85;;;;;;;;;;5053509;28;20017;-88
2021/07/15 07:27:33;;;;;;;40.97;11.90;;;;;;;;;;5054549;28;20055;-88
2021/07/15 07:29:59;;;;;;;30.27;13.23;;;;;;;;;;5054712;28;20040;-89
2021/07/15 07:32:24;;;;;;;25.33;12.75;;;;;;;;;;5053169;28;20039;-87
2021/07/15 07:34:49;;;;;;;22.42;13.15;;;;;;;;;;5053534;28;20017;-88
2021/07/15 07:37:15;;;;;;;25.65;13.30;;;;;;;;;;5052754;28;20021;-87
2021/07/15 07:39:40;;;;;;;31.90;14.57;;;;;;;;;;5049734;28;20733;-87
2021/07/15 07:42:05;;;;;;;27.58;14.23;;;;;;;;;;5049309;28;20444;-88
2021/07/15 07:44:30;;;;;;;33.75;16.98;;;;;;;;;;5050465;28;20074;-87
2021/07/15 07:46:56;;;;;;;32.30;16.67;;;;;;;;;;5054313;28;20028;-88
2021/07/15 07:49:21;;;;;;;29.10;15.70;;;;;;;;;;5050864;28;20139;-87
2021/07/15 07:51:46;;;;;;;28.85;15.70;;;;;;;;;;5050238;28;20055;-87
2021/07/15 08:00:18;;;;;;;24.25;13.38;;;;;;;;;;5044617;28;20068;-87
2021/07/15 08:02:45;;;;;;;22.60;13.35;;;;;;;;;;5053683;28;20029;-87
2021/07/15 08:05:11;;;;;;;28.63;12.45;;;;;;;;;;5052361;28;20112;-87
2021/07/15 08:07:36;;;;;;;21.98;12.07;;;;;;;;;;5051843;28;20117;-88
2021/07/15 08:10:04;;;;;;;17.20;11.52;;;;;;;;;;5053681;28;20090;-87
2021/07/15 08:12:30;;;;;;;21.10;11.10;;;;;;;;;;5052652;28;20119;-87
2021/07/15 08:14:55;;;;;;;21.73;11.82;;;;;;;;;;5050902;28;20460;-87
2021/07/15 08:17:20;;;;;;;17.73;10.60;;;;;;;;;;5052308;28;20388;-87
2021/07/15 08:19:45;;;;;;;22.00;10.90;;;;;;;;;;5053835;28;20427;-87
2021/07/15 08:22:10;;;;;;;20.30;10.82;;;;;;;;;;5053058;28;20013;-87
2021/07/15 08:24:36;;;;;;;23.08;11.55;;;;;;;;;;5052451;28;20025;-87
2021/07/15 08:27:04;;;;;;;27.23;13.25;;;;;;;;;;5051931;28;20035;-87
2021/07/15 08:29:30;;;;;;;23.05;13.05;;;;;;;;;;5052299;28;20063;-87
2021/07/15 08:31:55;;;;;;;20.65;10.88;;;;;;;;;;5051768;28;20025;-87
2021/07/15 08:34:21;;;;;;;24.40;13.25;;;;;;;;;;5051501;28;20112;-87
2021/07/15 08:36:46;;;;;;;23.13;13.20;;;;;;;;;;5052057;28;20028;-87
2021/07/15 08:39:11;;;;;;;24.88;12.63;;;;;;;;;;5053601;28;20468;-86
2021/07/15 08:41:36;;;;;;;30.73;13.48;;;;;;;;;;5053138;28;20020;-87
2021/07/15 08:44:04;;;;;;;25.80;12.82;;;;;;;;;;5051659;28;20461;-87
2021/07/15 08:46:30;;;;;;;27.10;13.02;;;;;;;;;;5050518;28;20025;-86
2021/07/15 08:48:55;;;;;;;24.90;11.57;;;;;;;;;;5053189;28;20082;-86
2021/07/15 08:51:21;;;;;;;19.13;11.15;;;;;;;;;;5052033;28;20527;-86
2021/07/15 08:53:47;;;;;;;21.27;10.85;;;;;;;;;;5051958;28;20117;-87
2021/07/15 08:58:57;;;;;;;19.55;9.60;;;;;;;;;;5052747;28;20035;-87
2021/07/15 09:01:23;;;;;;;18.45;10.55;;;;;;;;;;5051836;28;20464;-88
2021/07/15 09:03:48;;;;;;;22.50;10.45;;;;;;;;;;5051536;28;20029;-88
2021/07/15 09:06:14;;;;;;;20.35;10.50;;;;;;;;;;5052673;28;20028;-88
2021/07/15 09:08:39;;;;;;;18.73;10.20;;;;;;;;;;5051758;28;20025;-87
2021/07/15 09:11:04;;;;;;;14.90;9.02;;;;;;;;;;5050423;28;20025;-86
2021/07/15 09:13:30;;;;;;;19.23;10.38;;;;;;;;;;5047038;28;20017;-85
2021/07/15 09:15:55;;;;;;;18.55;10.10;;;;;;;;;;5050240;28;20488;-85
2021/07/15 09:18:20;;;;;;;21.38;12.13;;;;;;;;;;5077460;28;20032;-89
2021/07/15 09:20:45;;;;;;;21.52;11.68;;;;;;;;;;5051953;28;20024;-89
2021/07/15 09:23:34;;;;;;;21.58;11.82;;;;;;;;;;5048403;28;20017;-87
2021/07/15 09:25:59;;;;;;;19.80;10.48;;;;;;;;;;5042777;28;20550;-88
2021/07/15 09:28:29;;;;;;;21.80;11.65;;;;;;;;;;5080855;28;20020;-89
2021/07/15 09:30:54;;;;;;;19.40;11.93;;;;;;;;;;5050256;28;20021;-89
2021/07/15 09:33:23;;;;;;;19.60;10.82;;;;;;;;;;5076991;28;20376;-89
2021/07/15 09:35:48;;;;;;;19.33;10.50;;;;;;;;;;5049563;28;20021;-88
2021/07/15 09:38:13;;;;;;;25.67;12.63;;;;;;;;;;5050825;28;20024;-89
2021/07/15 09:40:41;;;;;;;22.08;12.30;;;;;;;;;;5050584;28;20060;-88
2021/07/15 09:43:16;;;;;;;23.30;13.25;;;;;;;;;;5048924;28;20353;-89
2021/07/15 09:45:42;;;;;;;20.60;13.25;;;;;;;;;;5052162;28;20464;-89
2021/07/15 09:48:15;;;;;;;24.13;14.05;;;;;;;;;;5051081;28;20104;-89
2021/07/15 09:50:40;;;;;;;28.25;14.15;;;;;;;;;;5050503;28;20032;-88
2021/07/15 09:53:13;;;;;;;29.63;15.80;;;;;;;;;;5049443;28;20021;-88
2021/07/15 09:55:38;;;;;;;27.98;12.60;;;;;;;;;;5049454;28;20021;-89
2021/07/15 09:58:05;;;;;;;25.52;16.15;;;;;;;;;;5050397;28;20480;-88
2021/07/15 10:00:30;;;;;;;27.50;14.20;;;;;;;;;;5050056;28;20468;-89
2021/07/15 10:02:56;;;;;;;28.73;14.95;;;;;;;;;;5050915;28;20028;-89
2021/07/15 10:05:21;;;;;;;32.95;15.27;;;;;;;;;;5050791;28;20021;-89
2021/07/15 10:07:47;;;;;;;31.83;15.68;;;;;;;;;;5051060;28;20028;-89
2021/07/15 10:10:16;;;;;;;27.80;15.98;;;;;;;;;;5050268;28;20063;-88
2021/07/15 10:12:41;;;;;;;31.55;14.85;;;;;;;;;;5050463;28;20075;-88
2021/07/15 10:15:07;;;;;;;29.85;15.57;;;;;;;;;;5050197;28;20511;-89
2021/07/15 10:17:39;;;;;;;27.23;16.20;;;;;;;;;;5053445;28;20068;-89
2021/07/15 10:20:23;;;;;;;29.15;17.05;;;;;;;;;;5054109;28;20021;-89
2021/07/15 10:22:54;;;;;;;32.30;16.75;;;;;;;;;;5055613;28;20021;-89
2021/07/15 10:25:20;;;;;;;28.80;15.45;;;;;;;;;;5055388;28;20025;-89
2021/07/15 10:27:45;;;;;;;35.22;16.05;;;;;;;;;;5054565;28;20021;-89
2021/07/15 10:30:11;;;;;;;40.28;18.30;;;;;;;;;;5054980;28;20024;-89
2021/07/15 10:32:37;;;;;;;35.80;19.20;;;;;;;;;;5053685;28;20033;-89
2021/07/15 10:35:04;;;;;;;31.42;19.30;;;;;;;;;;5054327;28;20440;-88
2021/07/15 10:37:29;;;;;;;35.60;18.23;;;;;;;;;;5053731;28;20031;-89
2021/07/15 10:39:55;;;;;;;46.95;19.13;;;;;;;;;;5053243;28;20017;-89
2021/07/15 10:42:20;;;;;;;30.20;16.38;;;;;;;;;;5054379;28;20452;-89
2021/07/15 10:44:45;;;;;;;31.00;17.25;;;;;;;;;;5053073;28;20016;-89
2021/07/15 10:47:11;;;;;;;35.17;17.85;;;;;;;;;;5053725;28;20025;-89
2021/07/15 10:49:37;;;;;;;38.88;18.40;;;;;;;;;;5053316;28;20024;-89
2021/07/15 10:52:05;;;;;;;40.08;20.35;;;;;;;;;;5053442;28;20025;-89
2021/07/15 10:54:31;;;;;;;38.25;16.60;;;;;;;;;;5053521;28;20440;-89
2021/07/15 10:56:56;;;;;;;28.42;16.35;;;;;;;;;;5052997;28;20104;-88
2021/07/15 10:59:23;;;;;;;32.55;17.83;;;;;;;;;;5054622;28;20106;-89
2021/07/15 11:01:48;;;;;;;31.05;17.08;;;;;;;;;;5053534;28;20048;-88
2021/07/15 11:04:15;;;;;;;30.27;16.67;;;;;;;;;;5053043;28;20605;-89
2021/07/15 11:06:41;;;;;;;34.72;18.27;;;;;;;;;;5046391;28;20056;-89
2021/07/15 11:09:10;;;;;;;29.60;17.80;;;;;;;;;;5054397;28;20115;-89
2021/07/15 11:11:37;;;;;;;35.40;18.63;;;;;;;;;;5053383;28;20120;-89
2021/07/15 11:14:02;;;;;;;32.45;19.80;;;;;;;;;;5053182;28;20404;-89
2021/07/15 11:16:47;;;;;;;36.42;19.00;;;;;;;;;;5053165;28;20017;-89
2021/07/15 11:19:32;;;;;;;42.03;21.65;;;;;;;;;;5052065;28;20537;-89
2021/07/15 11:21:57;;;;;;;40.25;20.15;;;;;;;;;;5064060;28;20064;-89
2021/07/15 11:24:28;;;;;;;42.67;21.77;;;;;;;;;;5051123;28;20025;-89
2021/07/15 11:26:53;;;;;;;41.83;21.08;;;;;;;;;;5050416;28;20108;-89
2021/07/15 11:29:38;;;;;;;52.25;22.00;;;;;;;;;;5052075;28;20139;-89
2021/07/15 11:32:23;;;;;;;43.78;19.02;;;;;;;;;;5043789;28;20025;-89
2021/07/15 11:34:50;;;;;;;49.92;23.13;;;;;;;;;;5054877;28;20028;-89
2021/07/15 11:37:35;;;;;;;44.50;21.98;;;;;;;;;;5054112;28;20082;-89
2021/07/15 11:40:01;;;;;;;54.22;23.17;;;;;;;;;;5050718;28;20031;-89
2021/07/15 11:42:28;;;;;;;48.78;24.33;;;;;;;;;;5052555;28;20119;-89
2021/07/15 11:45:01;;;;;;;44.83;22.42;;;;;;;;;;5051919;28;20024;-89
2021/07/15 11:47:46;;;;;;;47.45;23.77;;;;;;;;;;5052154;28;20044;-89
2021/07/15 11:50:26;;;;;;;37.45;16.42;;;;;;;;;;5050061;28;20431;-89
2021/07/15 11:53:11;;;;;;;53.55;19.73;;;;;;;;;;5065865;28;20036;-92
2021/07/15 11:55:36;;;;;;;30.63;12.85;;;;;;;;;;5050609;28;20108;-91
2021/07/15 11:58:02;;;;;;;37.47;16.70;;;;;;;;;;5052713;28;20064;-90
2021/07/15 12:00:28;;;;;;;47.30;19.55;;;;;;;;;;5052265;28;20099;-91
2021/07/15 12:02:57;;;;;;;38.25;18.48;;;;;;;;;;5051371;28;20522;-90
2021/07/15 12:05:29;;;;;;;39.47;17.85;;;;;;;;;;5052410;28;20025;-90
2021/07/15 12:08:12;;;;;;;41.15;20.90;;;;;;;;;;5053923;28;20440;-89
2021/07/15 12:10:46;;;;;;;37.58;20.40;;;;;;;;;;5052782;28;20112;-90
2021/07/15 12:13:12;;;;;;;36.40;18.23;;;;;;;;;;5051555;28;20025;-90
2021/07/15 12:15:38;;;;;;;41.30;21.80;;;;;;;;;;5053478;28;20104;-89
2021/07/15 12:18:11;;;;;;;42.15;20.63;;;;;;;;;;5051602;28;20032;-90
2021/07/15 12:20:39;;;;;;;40.22;21.02;;;;;;;;;;5053574;28;20467;-89
2021/07/15 12:23:04;;;;;;;38.85;21.65;;;;;;;;;;5053676;28;20028;-89
2021/07/15 12:25:31;;;;;;;38.90;23.27;;;;;;;;;;5052249;28;20020;-90
2021/07/15 12:27:58;;;;;;;46.35;21.90;;;;;;;;;;5052188;28;20024;-90
2021/07/15 12:30:35;;;;;;;53.35;24.55;;;;;;;;;;5052015;28;20029;-90
2021/07/15 12:33:01;;;;;;;48.42;23.60;;;;;;;;;;5051275;28;20472;-90
2021/07/15 12:35:29;;;;;;;47.53;23.33;;;;;;;;;;5051591;28;20032;-89
2021/07/15 12:37:54;;;;;;;45.42;24.10;;;;;;;;;;5051362;28;20468;-89
2021/07/15 12:40:24;;;;;;;50.10;27.10;;;;;;;;;;5051248;28;20166;-90
2021/07/15 12:42:49;;;;;;;44.50;23.55;;;;;;;;;;5051341;28;20048;-89
2021/07/15 12:45:19;;;;;;;52.72;26.52;;;;;;;;;;5050957;28;20455;-89
2021/07/15 12:48:00;;;;;;;49.65;25.15;;;;;;;;;;5051184;28;20036;-89
2021/07/15 12:50:26;;;;;;;45.03;23.08;;;;;;;;;;5049953;28;20019;-90
2021/07/15 12:53:07;;;;;;;50.70;23.33;;;;;;;;;;5052712;28;20436;-89
2021/07/15 12:55:33;;;;;;;48.63;22.88;;;;;;;;;;5051412;28;20028;-89
2021/07/15 12:57:58;;;;;;;48.50;23.40;;;;;;;;;;5050736;28;20029;-89
2021/07/15 13:00:24;;;;;;;52.33;24.40;;;;;;;;;;5053025;28;20560;-90
2021/07/15 13:02:49;;;;;;;50.13;24.10;;;;;;;;;;5053251;28;20012;-89
2021/07/15 13:05:18;;;;;;;50.83;24.45;;;;;;;;;;5052886;28;20092;-89
2021/07/15 13:07:44;;;;;;;43.65;24.98;;;;;;;;;;5053070;28;20025;-89
2021/07/15 13:10:21;;;;;;;45.92;24.65;;;;;;;;;;5053362;28;20299;-89
2021/07/15 13:15:30;;;;;;;45.53;23.00;;;;;;;;;;5053487;28;20064;-90
2021/07/15 13:17:55;;;;;;;43.58;22.38;;;;;;;;;;5052422;28;20465;-90
2021/07/15 13:20:22;;;;;;;44.17;21.27;;;;;;;;;;5052412;28;20460;-90
2021/07/15 13:22:54;;;;;;;46.15;21.73;;;;;;;;;;5051844;28;20013;-89
2021/07/15 13:25:24;;;;;;;48.53;22.17;;;;;;;;;;5051046;28;20108;-90
2021/07/15 13:27:49;;;;;;;43.88;21.67;;;;;;;;;;5050786;28;20036;-90
2021/07/15 13:30:17;;;;;;;48.20;23.92;;;;;;;;;;5050896;28;20029;-89
2021/07/15 13:32:43;;;;;;;45.28;21.55;;;;;;;;;;5050709;28;20033;-90
2021/07/15 13:35:13;;;;;;;44.40;22.08;;;;;;;;;;5050780;28;20063;-89
2021/07/15 13:37:38;;;;;;;58.03;24.38;;;;;;;;;;5051790;28;20410;-89
2021/07/15 13:40:14;;;;;;;51.08;25.42;;;;;;;;;;5084733;28;20033;-90
2021/07/15 13:42:39;;;;;;;47.67;24.48;;;;;;;;;;5050431;28;20606;-88
2021/07/15 13:45:06;;;;;;;49.40;22.60;;;;;;;;;;5051580;28;20123;-89
2021/07/15 13:47:35;;;;;;;54.72;27.30;;;;;;;;;;5084534;28;20116;-89
2021/07/15 13:50:11;;;;;;;55.58;26.58;;;;;;;;;;5050457;28;20100;-89
2021/07/15 13:52:40;;;;;;;48.83;24.23;;;;;;;;;;5054019;28;20051;-89
2021/07/15 13:55:09;;;;;;;52.83;25.15;;;;;;;;;;5054510;28;20024;-90
2021/07/15 13:57:54;;;;;;;55.17;26.05;;;;;;;;;;5055109;28;20051;-90
2021/07/15 14:00:24;;;;;;;53.45;25.92;;;;;;;;;;5065174;28;20148;-89
2021/07/15 14:02:50;;;;;;;46.92;24.20;;;;;;;;;;5054548;28;20025;-89
2021/07/15 14:05:26;;;;;;;48.40;24.63;;;;;;;;;;5054210;28;20101;-90
2021/07/15 14:07:51;;;;;;;49.05;23.95;;;;;;;;;;5053796;28;20080;-89
2021/07/15 14:10:16;;;;;;;56.10;26.55;;;;;;;;;;5054440;28;20443;-89
2021/07/15 14:12:43;;;;;;;47.65;25.20;;;;;;;;;;5054342;28;20112;-89
2021/07/15 14:15:17;;;;;;;50.28;26.25;;;;;;;;;;5054379;28;20056;-89
2021/07/15 14:17:42;;;;;;;52.80;27.13;;;;;;;;;;5054592;28;20033;-89
2021/07/15 14:20:08;;;;;;;55.53;26.55;;;;;;;;;;5054116;28;20021;-89
2021/07/15 14:22:33;;;;;;;55.35;26.55;;;;;;;;;;5068233;28;20009;-90
2021/07/15 14:24:58;;;;;;;53.47;27.90;;;;;;;;;;5054198;28;20059;-90
2021/07/15 14:27:24;;;;;;;60.38;29.73;;;;;;;;;;5053810;28;20043;-89
2021/07/15 14:29:49;;;;;;;49.38;25.35;;;;;;;;;;5053993;28;20013;-89
2021/07/15 14:32:16;;;;;;;57.53;24.35;;;;;;;;;;5053822;28;20028;-90